Time;durP1;ratioP1;P1;durP2;ratioP2;P2;SDS_P1;SDS_P2;PMS_P1;PMS_P2;Temp;Humidity;BMP_temperature;BMP_pressure;BME280_temperature;BME280_humidity;BME280_pressure;Samples;Min_cycle;Max_cycle;Signal;HPM_P1;HPM_P2
2023/09/19 00:01:15;;;;;;;1.45;1.00;;;18.50;99.90;;;18.77;100.00;100349.38;5243431;28;20139;-52
2023/09/19 00:03:47;;;;;;;1.17;0.90;;;18.40;99.90;;;18.76;100.00;100342.34;5243170;28;20074;-51
2023/09/19 00:06:20;;;;;;;1.83;1.05;;;18.40;99.90;;;18.73;100.00;100334.47;5239324;28;20048;-52
2023/09/19 00:08:53;;;;;;;1.30;0.82;;;18.40;99.90;;;18.68;100.00;100330.06;5242880;28;20618;-51
2023/09/19 00:11:26;;;;;;;2.53;1.00;;;18.40;99.90;;;18.69;100.00;100339.72;5243884;28;20060;-52
2023/09/19 00:14:00;;;;;;;1.73;1.00;;;18.30;99.90;;;18.66;100.00;100341.50;5243204;28;20403;-52
2023/09/19 00:16:32;;;;;;;1.83;0.60;;;18.30;99.90;;;18.66;100.00;100337.13;5241571;28;20525;-51
2023/09/19 00:19:08;;;;;;;2.10;0.73;;;18.30;99.90;;;18.65;100.00;100343.25;5242990;28;20029;-51
2023/09/19 00:21:41;;;;;;;2.05;0.93;;;18.30;99.90;;;18.63;100.00;100347.66;5243122;28;20066;-52
2023/09/19 00:24:14;;;;;;;1.95;0.93;;;18.30;99.90;;;18.63;100.00;100337.09;5242885;28;20135;-52
2023/09/19 00:26:49;;;;;;;2.33;1.10;;;18.30;99.90;;;18.63;100.00;100352.94;5237305;28;20044;-54
2023/09/19 00:29:24;;;;;;;1.35;0.82;;;18.30;99.90;;;18.61;100.00;100354.72;5240534;28;20052;-51
2023/09/19 00:31:57;;;;;;;3.47;1.13;;;18.30;99.90;;;18.60;100.00;100352.97;5243563;28;20044;-52
2023/09/19 00:34:30;;;;;;;2.63;0.90;;;18.30;99.90;;;18.58;100.00;100357.38;5239637;28;20140;-52
2023/09/19 00:37:03;;;;;;;1.23;0.60;;;18.20;99.90;;;18.57;100.00;100352.09;5242640;28;20043;-53
2023/09/19 00:39:37;;;;;;;1.85;0.90;;;18.20;99.90;;;18.54;100.00;100347.72;5241419;28;20090;-52
2023/09/19 00:42:09;;;;;;;2.58;0.90;;;18.20;99.90;;;18.52;100.00;100354.78;5243296;28;20063;-52
2023/09/19 00:44:46;;;;;;;2.35;0.70;;;18.20;99.90;;;18.48;100.00;100346.88;5242373;28;20052;-52
2023/09/19 00:47:18;;;;;;;1.73;0.90;;;18.10;99.90;;;18.45;100.00;100353.00;5240871;28;20041;-51
2023/09/19 00:49:51;;;;;;;2.60;1.02;;;18.10;99.90;;;18.45;100.00;100358.28;5239679;28;20072;-53
2023/09/19 00:52:23;;;;;;;3.25;1.00;;;18.10;99.90;;;18.41;100.00;100360.09;5243083;28;20040;-52
2023/09/19 00:55:02;;;;;;;2.28;0.95;;;18.00;99.90;;;18.38;100.00;100359.19;5242671;28;20048;-52
2023/09/19 00:57:35;;;;;;;2.13;0.82;;;18.00;99.90;;;18.35;100.00;100353.94;5240904;28;20037;-52
2023/09/19 01:00:15;;;;;;;2.10;0.80;;;18.00;99.90;;;18.33;100.00;100363.66;5242582;28;20141;-53
2023/09/19 01:02:50;;;;;;;2.28;0.88;;;18.00;99.90;;;18.30;100.00;100371.56;5242684;28;20040;-52
2023/09/19 01:05:23;;;;;;;2.95;0.90;;;18.00;99.90;;;18.29;100.00;100368.03;5239655;28;20041;-53
2023/09/19 01:07:57;;;;;;;0.88;0.70;;;18.00;99.90;;;18.28;100.00;100370.69;5242799;28;20139;-52
2023/09/19 01:10:33;;;;;;;2.85;0.80;;;17.90;99.90;;;18.27;100.00;100369.81;5236712;28;20098;-52
2023/09/19 01:13:21;;;;;;;1.75;0.82;;;17.90;99.90;;;18.26;100.00;100370.72;5242491;28;20127;-52
2023/09/19 01:16:07;;;;;;;2.15;0.90;;;17.90;99.90;;;18.26;100.00;100375.09;5240092;28;20055;-52
2023/09/19 01:19:01;;;;;;;1.00;0.90;;;17.90;99.90;;;18.26;100.00;100373.34;5240444;28;20411;-53
2023/09/19 01:21:46;;;;;;;2.00;0.98;;;17.90;99.90;;;18.29;100.00;100383.00;5240523;28;20040;-51
2023/09/19 01:25:05;;;;;;;1.42;0.75;;;17.90;99.90;;;18.29;100.00;100373.31;5239280;28;20037;-53
2023/09/19 01:28:22;;;;;;;1.67;0.70;;;17.90;99.90;;;18.31;100.00;100381.22;5240993;28;20135;-52
2023/09/19 01:31:03;;;;;;;1.17;0.80;;;17.90;99.90;;;18.33;100.00;100387.38;5242027;28;20535;-54
2023/09/19 01:33:59;;;;;;;2.13;0.82;;;18.00;99.90;;;18.33;100.00;100385.63;5231602;28;20039;-53
2023/09/19 01:36:35;;;;;;;1.60;0.90;;;18.00;99.90;;;18.35;100.00;100390.91;5238744;28;20049;-52
2023/09/19 01:39:13;;;;;;;1.40;0.90;;;18.00;99.90;;;18.35;100.00;100388.25;5240713;28;20128;-53
2023/09/19 01:42:04;;;;;;;1.95;0.73;;;18.00;99.90;;;18.34;100.00;100400.56;5238466;28;20155;-53
2023/09/19 01:44:52;;;;;;;3.80;1.02;;;18.00;99.90;;;18.35;100.00;100404.97;5237538;28;20040;-52
2023/09/19 01:47:35;;;;;;;3.10;0.90;;;18.00;99.90;;;18.39;100.00;100403.22;5238862;28;20547;-52
2023/09/19 01:50:19;;;;;;;2.35;0.93;;;18.00;99.90;;;18.40;100.00;100397.91;5241120;28;20155;-52
2023/09/19 01:53:00;;;;;;;1.75;0.82;;;18.10;99.90;;;18.43;100.00;100410.22;5240564;28;20145;-52
2023/09/19 01:55:42;;;;;;;2.33;1.00;;;18.10;99.90;;;18.44;100.00;100406.69;5239488;28;20033;-52
2023/09/19 01:58:24;;;;;;;2.03;1.00;;;18.10;99.90;;;18.44;100.00;100419.88;5239905;28;20044;-51
2023/09/19 02:01:03;;;;;;;2.67;1.05;;;18.10;99.90;;;18.43;100.00;100415.50;5236606;28;20127;-52
2023/09/19 02:03:39;;;;;;;2.30;0.90;;;18.10;99.90;;;18.43;100.00;100420.75;5239860;28;20561;-53
2023/09/19 02:06:15;;;;;;;1.27;0.90;;;18.10;99.90;;;18.41;100.00;100420.78;5240231;28;20050;-53
2023/09/19 02:08:48;;;;;;;3.38;0.93;;;18.10;99.90;;;18.40;100.00;100423.44;5243574;28;20044;-53
2023/09/19 02:11:20;;;;;;;2.50;0.90;;;18.10;99.90;;;18.42;100.00;100432.22;5229200;28;20047;-53
2023/09/19 02:13:54;;;;;;;4.47;0.80;;;18.10;99.90;;;18.36;100.00;100435.75;5252558;28;20525;-52
2023/09/19 02:16:26;;;;;;;1.70;0.70;;;18.10;99.90;;;18.34;100.00;100436.63;5242150;28;20415;-50
2023/09/19 02:19:05;;;;;;;4.55;1.00;;;18.00;99.90;;;18.34;100.00;100439.28;5241959;28;20078;-51
2023/09/19 02:21:40;;;;;;;3.33;0.95;;;18.00;99.90;;;18.33;100.00;100442.81;5237176;28;20515;-52
2023/09/19 02:24:13;;;;;;;5.20;1.08;;;18.00;99.90;;;18.28;100.00;100448.06;5241312;28;20424;-53
2023/09/19 02:26:47;;;;;;;2.00;0.82;;;18.00;99.90;;;18.24;100.00;100453.34;5242799;28;20121;-51
2023/09/19 02:29:19;;;;;;;1.80;0.82;;;17.90;99.90;;;18.18;100.00;100454.25;5245186;28;20044;-51
2023/09/19 02:31:51;;;;;;;3.97;1.38;;;17.90;99.90;;;18.14;100.00;100453.38;5243370;28;20098;-53
2023/09/19 02:34:25;;;;;;;1.25;0.75;;;17.90;99.90;;;18.12;100.00;100455.13;5242068;28;20037;-52
2023/09/19 02:36:58;;;;;;;2.50;0.88;;;17.80;99.90;;;18.11;100.00;100458.66;5242412;28;20040;-52
2023/09/19 02:39:31;;;;;;;3.28;1.20;;;17.80;99.90;;;18.10;100.00;100456.91;5243110;28;20068;-53
2023/09/19 02:42:04;;;;;;;4.00;1.10;;;17.80;99.90;;;18.06;100.00;100455.16;5244949;28;20132;-53
2023/09/19 02:44:38;;;;;;;4.25;1.00;;;17.70;99.90;;;18.04;100.00;100456.91;5241560;28;20052;-53
2023/09/19 02:47:14;;;;;;;2.97;0.70;;;17.70;99.90;;;18.01;100.00;100456.03;5244150;28;20079;-53
2023/09/19 02:49:49;;;;;;;3.08;1.15;;;17.70;99.90;;;17.98;100.00;100456.03;5245170;28;20053;-52
2023/09/19 02:52:21;;;;;;;3.08;1.00;;;17.60;99.90;;;17.95;100.00;100462.19;5240925;28;20047;-52
2023/09/19 02:54:54;;;;;;;5.05;1.05;;;17.60;99.90;;;17.91;100.00;100465.69;5239040;28;20055;-51
2023/09/19 02:57:27;;;;;;;3.50;1.00;;;17.60;99.90;;;17.88;100.00;100465.72;5242105;28;20087;-52
2023/09/19 03:00:00;;;;;;;2.28;0.73;;;17.60;99.90;;;17.87;100.00;100469.22;5245259;28;20044;-51
2023/09/19 03:02:34;;;;;;;5.43;1.85;;;17.60;99.90;;;17.87;100.00;100482.41;5242436;28;20067;-53
2023/09/19 03:05:12;;;;;;;3.95;1.10;;;17.60;99.90;;;17.85;100.00;100481.50;5240559;28;20040;-51
2023/09/19 03:07:46;;;;;;;2.28;1.00;;;17.50;99.90;;;17.83;100.00;100470.09;5241543;28;20051;-52
2023/09/19 03:10:20;;;;;;;2.65;0.70;;;17.50;99.90;;;17.81;100.00;100469.22;5245236;28;20426;-52
2023/09/19 03:12:53;;;;;;;5.28;0.93;;;17.50;99.90;;;17.80;100.00;100467.44;5237765;28;20055;-52
2023/09/19 03:15:26;;;;;;;2.30;1.00;;;17.50;99.90;;;17.77;100.00;100478.00;5239955;28;20037;-51
2023/09/19 03:17:59;;;;;;;2.15;0.88;;;17.50;99.90;;;17.74;100.00;100483.28;5244682;28;20048;-52
2023/09/19 03:20:33;;;;;;;2.42;0.82;;;17.40;99.90;;;17.73;100.00;100485.03;5239404;28;20041;-54
2023/09/19 03:23:08;;;;;;;2.25;0.77;;;17.40;99.90;;;17.71;100.00;100488.50;5243857;28;20419;-53
2023/09/19 03:25:42;;;;;;;4.15;1.00;;;17.40;99.90;;;17.68;100.00;100491.16;5244974;28;20091;-51
2023/09/19 03:28:15;;;;;;;4.85;1.00;;;17.40;99.90;;;17.66;100.00;100492.88;5245053;28;20090;-52
2023/09/19 03:30:59;;;;;;;3.58;0.90;;;17.40;99.90;;;17.63;100.00;100502.56;5241648;28;20036;-53
2023/09/19 03:33:32;;;;;;;2.85;0.80;;;17.30;99.90;;;17.63;100.00;100499.94;5238102;28;20111;-52
2023/09/19 03:36:07;;;;;;;3.53;1.10;;;17.30;99.90;;;17.61;100.00;100504.31;5241633;28;20037;-51
2023/09/19 03:38:40;;;;;;;3.63;0.90;;;17.30;99.90;;;17.60;100.00;100502.56;5238495;28;20053;-51
2023/09/19 03:41:14;;;;;;;3.90;1.00;;;17.30;99.90;;;17.58;100.00;100508.69;5242317;28;20413;-52
2023/09/19 03:43:46;;;;;;;3.58;0.90;;;17.30;99.90;;;17.56;100.00;100497.28;5240517;28;20060;-52
2023/09/19 03:46:19;;;;;;;1.52;0.85;;;17.30;99.90;;;17.55;100.00;100499.03;5241539;28;20041;-53
2023/09/19 03:48:54;;;;;;;4.53;0.88;;;17.20;99.90;;;17.54;100.00;100489.38;5237223;28;20052;-52
2023/09/19 03:51:28;;;;;;;3.65;0.90;;;17.20;99.90;;;17.54;100.00;100492.03;5238380;28;20033;-52
2023/09/19 03:54:01;;;;;;;4.32;1.35;;;17.20;99.90;;;17.56;100.00;100492.00;5243869;28;20061;-52
2023/09/19 03:56:33;;;;;;;3.10;1.00;;;17.20;99.90;;;17.54;100.00;100488.47;5242872;28;20448;-51
2023/09/19 03:59:08;;;;;;;3.20;0.73;;;17.20;99.90;;;17.53;100.00;100492.88;5235309;28;20056;-52
2023/09/19 04:01:41;;;;;;;1.15;0.80;;;17.20;99.90;;;17.52;100.00;100488.47;5243592;28;20476;-52
2023/09/19 04:04:14;;;;;;;3.80;0.82;;;17.20;99.90;;;17.52;100.00;100498.16;5240196;28;20060;-53
2023/09/19 04:06:48;;;;;;;2.17;0.88;;;17.20;99.90;;;17.50;100.00;100498.16;5237842;28;20051;-50
2023/09/19 04:09:20;;;;;;;3.13;0.80;;;17.20;99.90;;;17.52;100.00;100504.28;5241010;28;20045;-53
2023/09/19 04:11:52;;;;;;;3.40;1.05;;;17.20;99.90;;;17.53;100.00;100484.97;5232763;28;20048;-52
2023/09/19 04:14:25;;;;;;;3.17;0.80;;;17.20;99.90;;;17.53;100.00;100499.91;5236871;28;20495;-52
2023/09/19 04:16:57;;;;;;;3.15;0.95;;;17.20;99.90;;;17.53;100.00;100489.34;5244176;28;20136;-51
2023/09/19 04:19:30;;;;;;;5.22;1.50;;;17.20;99.90;;;17.53;100.00;100498.13;5240608;28;20090;-52
2023/09/19 04:22:04;;;;;;;4.18;1.00;;;17.20;99.90;;;17.51;100.00;100486.72;5240293;28;20147;-53
2023/09/19 04:24:37;;;;;;;4.13;0.98;;;17.20;99.90;;;17.50;100.00;100500.78;5234749;28;20052;-52
2023/09/19 04:27:12;;;;;;;3.03;0.88;;;17.20;99.90;;;17.51;100.00;100499.03;5238324;28;20127;-53
2023/09/19 04:29:44;;;;;;;4.28;1.20;;;17.20;99.90;;;17.49;100.00;100499.03;5243968;28;20040;-53
2023/09/19 04:32:17;;;;;;;5.07;1.20;;;17.20;99.90;;;17.44;100.00;100498.13;5243400;28;20056;-52
2023/09/19 04:34:49;;;;;;;5.50;1.45;;;17.20;99.90;;;17.40;100.00;100499.00;5243771;28;20066;-53
2023/09/19 04:37:23;;;;;;;2.70;1.13;;;17.10;99.90;;;17.38;100.00;100500.75;5235534;28;20050;-57
2023/09/19 04:39:55;;;;;;;2.95;1.00;;;17.10;99.90;;;17.35;100.00;100500.75;5240921;28;20052;-52
2023/09/19 04:42:30;;;;;;;2.08;0.70;;;17.10;99.90;;;17.34;100.00;100505.16;5241292;28;20047;-53
2023/09/19 04:45:03;;;;;;;5.97;1.10;;;17.00;99.90;;;17.31;100.00;100509.53;5242835;28;20060;-54
2023/09/19 04:47:35;;;;;;;7.03;1.25;;;17.00;99.90;;;17.25;100.00;100498.97;5237080;28;20041;-52
2023/09/19 04:50:13;;;;;;;4.45;1.10;;;17.00;99.90;;;17.23;100.00;100506.00;5238578;28;20044;-53
2023/09/19 04:52:50;;;;;;;1.73;1.00;;;17.00;99.90;;;17.20;100.00;100508.59;5243296;28;20040;-53
2023/09/19 04:55:23;;;;;;;3.45;1.00;;;17.00;99.90;;;17.18;100.00;100502.47;5236891;28;20052;-54
2023/09/19 04:57:55;;;;;;;2.00;0.85;;;16.90;99.90;;;17.16;100.00;100512.13;5234703;28;20557;-53
2023/09/19 05:00:30;;;;;;;3.75;1.02;;;16.90;99.90;;;17.14;100.00;100511.22;5240226;28;20052;-54
2023/09/19 05:03:04;;;;;;;5.30;1.35;;;16.90;99.90;;;17.16;100.00;100520.91;5237874;28;20049;-52
2023/09/19 05:05:40;;;;;;;2.25;0.95;;;16.90;99.90;;;17.14;100.00;100527.00;5237327;28;20094;-53
2023/09/19 05:08:15;;;;;;;2.60;0.85;;;16.90;99.90;;;17.16;100.00;100520.03;5240929;28;20392;-53
2023/09/19 05:10:47;;;;;;;2.83;1.15;;;16.90;99.90;;;17.17;100.00;100519.13;5238127;28;20049;-53
2023/09/19 05:13:24;;;;;;;7.32;1.77;;;16.90;99.90;;;17.17;100.00;100522.66;5237138;28;20116;-52
2023/09/19 05:15:56;;;;;;;5.47;1.25;;;16.90;99.90;;;17.16;100.00;100526.16;5237435;28;20044;-54
2023/09/19 05:18:28;;;;;;;4.05;1.27;;;16.90;99.90;;;17.16;100.00;100533.19;5239405;28;20045;-52
2023/09/19 05:21:03;;;;;;;5.10;1.10;;;16.90;99.90;;;17.11;100.00;100537.56;5243123;28;20060;-53
2023/09/19 05:23:37;;;;;;;;;;;16.80;99.90;;;17.05;100.00;100544.53;5240947;28;20060;-55
2023/09/19 05:26:12;;;;;;;5.05;1.20;;;16.80;99.90;;;17.04;100.00;100540.16;5240792;28;19921;-52
2023/09/19 05:28:44;;;;;;;5.50;1.23;;;16.80;99.90;;;17.02;100.00;100544.53;5234856;28;20393;-53
2023/09/19 05:31:20;;;;;;;5.15;1.20;;;16.80;99.90;;;16.99;100.00;100547.16;5242046;28;20540;-53
2023/09/19 05:33:54;;;;;;;7.03;1.45;;;16.70;99.90;;;17.00;100.00;100555.91;5228411;28;20056;-54
2023/09/19 05:36:29;;;;;;;4.88;1.10;;;16.70;99.90;;;16.98;100.00;100561.19;5236090;28;20128;-54
2023/09/19 05:39:04;;;;;;;4.50;1.17;;;16.70;99.90;;;16.97;100.00;100562.06;5232595;28;20049;-54
2023/09/19 05:41:39;;;;;;;7.10;1.42;;;16.70;99.90;;;16.96;100.00;100572.59;5237951;28;20864;-52
2023/09/19 05:44:12;;;;;;;6.30;1.40;;;16.70;99.90;;;16.97;100.00;100572.59;5241808;28;20056;-52
2023/09/19 05:46:45;;;;;;;3.70;1.05;;;16.70;99.90;;;16.97;100.00;100566.47;5232617;28;20037;-55
2023/09/19 05:49:18;;;;;;;2.85;1.17;;;16.70;99.90;;;16.96;100.00;100570.84;5235028;28;20051;-53
2023/09/19 05:51:53;;;;;;;4.20;1.35;;;16.70;99.90;;;16.99;100.00;100581.38;5239920;28;20049;-54
2023/09/19 05:54:27;;;;;;;4.40;1.23;;;16.70;99.90;;;17.00;100.00;100585.75;5240977;28;20040;-52
2023/09/19 05:56:59;;;;;;;5.15;1.23;;;16.70;99.90;;;17.02;100.00;100585.78;5232026;28;20118;-52
2023/09/19 05:59:33;;;;;;;4.47;1.13;;;16.70;99.90;;;17.05;100.00;100581.41;5241547;28;20048;-52
2023/09/19 06:02:06;;;;;;;5.60;1.00;;;16.80;99.90;;;17.08;100.00;100596.34;5245335;28;20547;-54
2023/09/19 06:04:40;;;;;;;4.25;1.40;;;16.80;99.90;;;17.08;100.00;100596.34;5245801;28;20230;-52
2023/09/19 06:07:13;;;;;;;4.03;1.23;;;16.80;99.90;;;17.07;100.00;100597.22;5245621;28;20105;-53
2023/09/19 06:09:46;;;;;;;5.03;1.50;;;16.80;99.90;;;17.09;100.00;100599.00;5242617;28;20131;-53
2023/09/19 06:12:19;;;;;;;3.22;1.20;;;16.80;99.90;;;17.10;100.00;100602.50;5244034;28;20053;-53
2023/09/19 06:14:52;;;;;;;4.95;1.50;;;16.80;99.90;;;17.13;100.00;100606.91;5245364;28;20052;-54
2023/09/19 06:17:24;;;;;;;4.28;1.25;;;16.90;99.90;;;17.14;100.00;100608.66;5245972;28;20101;-55
2023/09/19 06:19:56;;;;;;;4.25;1.58;;;16.80;99.90;;;17.19;100.00;100612.19;5246603;28;20052;-53
2023/09/19 06:22:29;;;;;;;3.15;1.20;;;16.90;99.90;;;17.21;100.00;100626.25;5247946;28;20446;-53
2023/09/19 06:25:03;;;;;;;4.38;1.20;;;16.90;99.90;;;17.21;100.00;100628.88;5246103;28;20527;-52
2023/09/19 06:27:41;;;;;;;4.82;1.50;;;16.90;99.90;;;17.25;100.00;100635.94;5239169;28;20059;-53
2023/09/19 06:30:14;;;;;;;3.88;1.20;;;17.00;99.90;;;17.25;100.00;100631.53;5240751;28;20519;-52
2023/09/19 06:32:46;;;;;;;2.80;1.30;;;17.00;99.90;;;17.28;100.00;100633.34;5239001;28;20476;-55
2023/09/19 06:35:19;;;;;;;4.22;1.20;;;17.00;99.90;;;17.29;100.00;100638.59;5247739;28;20056;-54
2023/09/19 06:37:52;;;;;;;4.15;1.13;;;17.00;99.90;;;17.32;100.00;100633.34;5244158;28;20048;-53
2023/09/19 06:40:28;;;;;;;5.40;1.10;;;17.00;99.90;;;17.39;100.00;100634.25;5243134;28;20048;-53
2023/09/19 06:43:02;;;;;;;5.90;1.42;;;17.10;99.90;;;17.49;100.00;100636.06;5245674;28;20419;-53
2023/09/19 06:45:34;;;;;;;3.75;1.27;;;17.10;99.90;;;17.53;100.00;100635.19;5243226;28;20040;-55
2023/09/19 06:48:07;;;;;;;5.45;1.70;;;17.20;99.90;;;17.57;100.00;100636.97;5238029;28;20083;-53
2023/09/19 06:50:41;;;;;;;3.00;1.20;;;17.20;99.90;;;17.62;100.00;100642.25;5245888;28;20072;-52
2023/09/19 06:53:13;;;;;;;4.60;1.30;;;17.30;99.90;;;17.66;100.00;100649.28;5238628;28;20056;-55
2023/09/19 06:55:50;;;;;;;4.22;1.23;;;17.30;99.90;;;17.71;100.00;100641.41;5240910;28;20454;-53
2023/09/19 06:58:22;;;;;;;4.80;1.65;;;17.40;99.90;;;17.75;100.00;100649.38;5238801;28;20457;-53
2023/09/19 07:00:56;;;;;;;4.93;1.52;;;17.40;99.90;;;17.81;100.00;100648.50;5241177;28;20056;-53
2023/09/19 07:03:28;;;;;;;5.75;1.45;;;17.50;99.90;;;17.87;100.00;100649.41;5241748;28;20044;-53
2023/09/19 07:06:01;;;;;;;3.58;1.13;;;17.50;99.90;;;18.00;100.00;100645.03;5245031;28;20151;-53
2023/09/19 07:08:33;;;;;;;3.22;1.23;;;17.60;99.90;;;18.12;100.00;100650.31;5241422;28;20451;-52
2023/09/19 07:11:07;;;;;;;3.35;1.20;;;17.70;99.90;;;18.25;100.00;100648.56;5242331;28;20040;-52
2023/09/19 07:13:39;;;;;;;5.45;1.40;;;17.80;99.90;;;18.36;100.00;100648.59;5240177;28;20484;-54
2023/09/19 07:16:13;;;;;;;4.15;1.20;;;17.90;99.90;;;18.45;100.00;100648.59;5243691;28;20058;-55
2023/09/19 07:18:45;;;;;;;6.85;1.38;;;18.00;99.90;;;18.52;100.00;100650.38;5242149;28;20057;-53
2023/09/19 07:21:18;;;;;;;5.03;1.13;;;18.10;99.90;;;18.58;100.00;100649.47;5235495;28;20381;-52
2023/09/19 07:23:53;;;;;;;4.03;1.33;;;18.20;99.90;;;18.61;100.00;100647.72;5240787;28;20045;-52
2023/09/19 07:26:27;;;;;;;4.88;1.65;;;18.20;99.90;;;18.71;100.00;100648.63;5237228;28;20048;-52
2023/09/19 07:29:02;;;;;;;3.03;1.30;;;18.30;99.90;;;18.89;100.00;100658.28;5232302;28;20041;-52
2023/09/19 07:31:34;;;;;;;6.35;1.17;;;18.40;99.90;;;19.04;100.00;100653.00;5240264;28;20047;-52
2023/09/19 07:34:08;;;;;;;6.30;1.15;;;18.50;99.90;;;19.19;100.00;100654.72;5239748;28;20041;-54
2023/09/19 07:36:41;;;;;;;5.07;1.40;;;18.70;99.90;;;19.39;100.00;100655.53;5241506;28;20082;-52
2023/09/19 07:39:14;;;;;;;6.15;1.50;;;18.90;99.90;;;19.56;99.76;100655.47;5237638;28;20053;-52
2023/09/19 07:41:51;;;;;;;8.05;1.30;;;19.00;99.90;;;19.77;98.10;100655.41;5236414;28;20530;-52
2023/09/19 07:44:25;;;;;;;3.15;0.90;;;19.20;99.90;;;19.89;98.01;100666.81;5241781;28;20045;-55
2023/09/19 07:46:58;;;;;;;5.72;1.48;;;19.30;99.90;;;20.01;97.57;100664.09;5236193;28;20045;-52
2023/09/19 07:49:30;;;;;;;8.70;1.85;;;19.40;99.90;;;20.12;96.04;100670.19;5240482;28;20036;-52
2023/09/19 07:52:02;;;;;;;3.83;1.00;;;19.50;99.90;;;20.22;95.79;100668.38;5239371;28;20056;-52
2023/09/19 07:54:36;;;;;;;5.30;1.30;;;19.60;99.90;;;20.38;95.55;100675.31;5228482;28;20051;-53
2023/09/19 07:57:09;;;;;;;3.45;1.23;;;19.80;99.90;;;20.55;94.02;100668.16;5245067;28;20052;-52
2023/09/19 07:59:43;;;;;;;6.57;1.25;;;19.90;99.90;;;20.71;93.12;100671.56;5244128;28;20052;-54
2023/09/19 08:02:16;;;;;;;4.68;1.52;;;20.00;99.90;;;20.86;92.58;100673.19;5240718;28;20518;-53
2023/09/19 08:04:48;;;;;;;6.40;1.23;;;20.10;99.90;;;21.09;91.70;100670.31;5238880;28;20045;-52
2023/09/19 08:07:23;;;;;;;3.95;1.35;;;20.30;99.90;;;21.32;90.19;100668.34;5244031;28;20138;-52
2023/09/19 08:09:58;;;;;;;5.60;1.52;;;20.50;99.40;;;21.49;89.40;100675.22;5239748;28;20135;-51
2023/09/19 08:12:32;;;;;;;4.85;1.55;;;20.60;99.10;;;21.63;89.06;100678.56;5239779;28;20043;-53
2023/09/19 08:15:05;;;;;;;6.78;1.40;;;20.70;98.90;;;21.74;88.07;100668.69;5238346;28;20129;-52
2023/09/19 08:17:41;;;;;;;5.75;1.40;;;20.80;98.60;;;21.88;88.46;100674.69;5241127;28;20123;-52
2023/09/19 08:20:16;;;;;;;6.18;1.35;;;21.00;98.70;;;22.13;87.70;100674.41;5241986;28;20102;-54
2023/09/19 08:22:49;;;;;;;5.18;1.23;;;21.10;98.50;;;22.43;85.82;100668.63;5240188;28;20044;-52
2023/09/19 08:25:23;;;;;;;3.90;1.15;;;21.30;97.90;;;22.84;85.26;100675.03;5233449;28;20053;-52
2023/09/19 08:28:08;;;;;;;3.78;1.17;;;21.50;97.90;;;23.23;83.25;100673.47;5229906;28;20051;-52
2023/09/19 08:30:40;;;;;;;5.53;1.30;;;21.80;97.50;;;23.51;81.59;100673.78;5240353;28;20415;-52
2023/09/19 08:33:15;;;;;;;3.70;1.40;;;22.10;96.60;;;23.82;79.87;100667.84;5243666;28;20036;-55
2023/09/19 08:35:47;;;;;;;7.85;1.50;;;22.40;95.90;;;23.98;77.92;100671.91;5249799;28;20064;-53
2023/09/19 08:38:20;;;;;;;3.40;1.02;;;22.60;94.90;;;24.20;78.49;100675.00;5241033;28;20500;-54
2023/09/19 08:40:52;;;;;;;6.35;1.20;;;22.80;94.90;;;24.45;77.36;100669.09;5238495;28;20109;-54
2023/09/19 08:43:26;;;;;;;5.20;1.45;;;23.00;94.40;;;24.67;76.19;100673.00;5242309;28;20090;-52
2023/09/19 08:46:11;;;;;;;4.18;1.20;;;23.20;93.80;;;24.88;74.19;100675.09;5243642;28;20051;-54
2023/09/19 08:48:49;;;;;;;4.95;1.20;;;23.50;92.80;;;24.77;73.59;100671.81;5235741;28;20235;-54
2023/09/19 08:51:29;;;;;;;4.60;1.10;;;23.50;92.10;;;24.60;74.19;100680.25;5234478;28;20056;-54
2023/09/19 08:54:09;;;;;;;5.93;1.30;;;23.50;92.00;;;24.47;74.44;100676.16;5233761;28;20209;-53
2023/09/19 08:56:44;;;;;;;5.97;1.27;;;23.40;91.80;;;24.38;74.56;100684.34;5236945;28;20432;-56
2023/09/19 08:59:24;;;;;;;2.20;0.90;;;23.40;91.80;;;24.19;75.17;100669.66;5242940;28;20568;-53
2023/09/19 09:02:00;;;;;;;4.72;1.33;;;23.30;91.80;;;24.09;74.88;100683.22;5236403;28;20055;-53
2023/09/19 09:04:35;;;;;;;5.65;1.13;;;23.20;91.50;;;23.99;74.29;100676.31;5237586;28;20041;-53
2023/09/19 09:07:12;;;;;;;4.63;1.42;;;23.20;91.10;;;23.95;75.36;100674.66;5237531;28;20062;-52
2023/09/19 09:09:48;;;;;;;5.88;1.50;;;23.10;91.30;;;23.89;75.37;100674.78;5239486;28;20048;-53
2023/09/19 09:12:20;;;;;;;2.90;0.90;;;23.10;91.20;;;23.84;75.16;100668.69;5233014;28;20118;-56
2023/09/19 09:14:54;;;;;;;3.85;1.13;;;23.10;91.00;;;23.85;75.76;100677.53;5233106;28;20102;-53
2023/09/19 09:17:26;;;;;;;4.20;1.08;;;23.10;91.10;;;23.82;75.71;100678.50;5234419;28;20428;-55
2023/09/19 09:20:02;;;;;;;3.58;0.93;;;23.10;91.00;;;23.82;76.28;100678.50;5234061;28;20064;-55
2023/09/19 09:22:36;;;;;;;3.65;0.98;;;23.10;91.30;;;23.89;76.90;100674.78;5190004;28;20424;-52
2023/09/19 09:25:09;;;;;;;5.30;0.98;;;23.10;91.50;;;23.94;75.47;100678.25;5215711;28;20500;-53
2023/09/19 09:27:42;;;;;;;3.75;1.00;;;23.20;91.00;;;23.92;75.37;100690.69;5236160;28;20455;-53
2023/09/19 09:30:35;;;;;;;4.20;1.20;;;23.20;90.80;;;23.92;75.80;100685.34;5220355;28;20497;-53
2023/09/19 09:33:12;;;;;;;4.70;1.05;;;23.20;90.90;;;23.96;75.18;100686.19;5218893;28;20122;-54
2023/09/19 09:35:53;;;;;;;3.03;1.05;;;23.20;90.90;;;23.93;75.14;100673.84;5220133;28;20053;-53
2023/09/19 09:38:28;;;;;;;3.58;0.95;;;23.20;90.60;;;23.98;75.31;100665.72;5221661;28;20051;-53
2023/09/19 09:41:06;;;;;;;3.50;0.93;;;23.20;90.60;;;24.01;74.78;100674.53;5218616;28;20045;-52
2023/09/19 09:43:41;;;;;;;3.67;1.15;;;23.30;90.40;;;24.00;74.67;100666.59;5219863;28;20042;-52
2023/09/19 09:49:27;;;;;;;3.40;0.93;;;23.20;90.20;;;24.05;73.98;100665.53;5158411;28;20061;-52
2023/09/19 09:52:05;;;;;;;3.53;1.00;;;23.30;89.90;;;24.12;73.93;100657.41;5212932;28;20103;-54
2023/09/19 09:54:37;;;;;;;3.75;1.15;;;23.40;89.60;;;24.18;73.85;100662.59;5231981;28;20057;-52
2023/09/19 09:57:17;;;;;;;2.42;0.73;;;23.40;89.40;;;24.30;73.43;100654.31;5218423;28;20049;-52
2023/09/19 09:59:58;;;;;;;2.97;0.90;;;23.50;89.20;;;24.40;73.38;100665.69;5237808;28;20041;-52
2023/09/19 10:02:39;;;;;;;5.38;1.40;;;23.60;89.10;;;24.46;73.86;100655.75;5235398;28;20048;-54
2023/09/19 10:05:20;;;;;;;3.78;1.10;;;23.70;89.30;;;24.49;72.90;100665.44;5219844;28;20045;-53
2023/09/19 10:08:00;;;;;;;3.67;1.00;;;23.70;88.30;;;24.54;72.16;100664.44;5217062;28;20500;-53
2023/09/19 10:10:43;;;;;;;3.03;1.30;;;23.70;87.50;;;24.49;72.27;100655.66;5212872;28;20073;-54
2023/09/19 10:13:18;;;;;;;5.28;1.00;;;23.70;87.40;;;24.33;71.95;100654.28;5221288;28;20053;-51
2023/09/19 10:15:55;;;;;;;2.85;0.90;;;23.60;87.00;;;24.15;73.54;100649.38;5227855;28;20478;-52
2023/09/19 10:18:30;;;;;;;2.50;0.95;;;23.50;87.90;;;23.98;73.46;100653.28;5221694;28;20049;-53
2023/09/19 10:21:06;;;;;;;2.88;1.10;;;23.40;88.00;;;23.91;74.56;100641.03;5222009;28;20114;-53
2023/09/19 10:23:43;;;;;;;3.92;1.15;;;23.30;88.80;;;23.87;74.10;100646.47;5226023;28;20131;-53
2023/09/19 10:26:18;;;;;;;4.28;0.80;;;23.20;88.50;;;24.01;73.92;100652.34;5221449;28;20047;-52
2023/09/19 10:28:54;;;;;;;4.20;1.10;;;23.20;88.50;;;24.16;73.85;100638.69;5228198;28;20044;-52
2023/09/19 10:31:29;;;;;;;2.47;1.00;;;23.40;88.40;;;24.36;73.32;100639.09;5221257;28;20032;-53
2023/09/19 10:34:05;;;;;;;6.30;1.15;;;23.50;88.20;;;24.38;71.73;100638.19;5213957;28;20077;-52
2023/09/19 10:36:38;;;;;;;5.28;1.13;;;23.60;86.70;;;24.34;72.66;100637.41;5224365;28;20136;-52
2023/09/19 10:39:13;;;;;;;2.60;0.80;;;23.60;86.80;;;24.37;72.60;100632.00;5221572;28;20504;-51
2023/09/19 10:41:53;;;;;;;3.40;0.90;;;23.60;87.20;;;24.32;72.41;100633.84;5221282;28;20411;-53
2023/09/19 10:44:28;;;;;;;5.07;1.10;;;23.60;86.60;;;24.32;72.10;100633.84;5221247;28;20049;-52